CYBU

Nipawin Airport

Nipawin, Saskatchewan, Canada
METAR CYBU 250600Z AUTO 16004KT BKN050 18/17 A2994 RMK WX MISG VIS MISG PCPN MISG SLP143 DENSITY ALT 1700FT
Observed Flight Rules
Jun-25 @ 06:00 UTC (24 minutes ago)
Wind Clouds
160° at 4 knots
  • Broken at 5,000' AGL
Temperatures Readings
Current 18°C / 64°F
Dewpoint 17°C / 63°F
Humidity 94%
Altimeter 29.94" Hg
Pressure 1014.3 hPa
Elevation 374
METAR CYBU 250600Z AUTO 16004KT BKN050 18/17 A2994 RMK WX MISG VIS MISG PCPN MISG SLP143 DENSITY ALT 1700FT
Observed Flight Rules
Jun-25 @ 06:00 UTC
(24 minutes ago)
Wind
160° at 4 knots
Clouds
  • Broken at 5,000' AGL
Temperature Dewpoint
18°C / 64°F 17°C / 63°F
Humidity Altimeter Pressure
94% 29.94" Hg 1014.3 hPa